sensor_id;sensor_type;location;lat;lon;timestamp;temperature;humidity
74364;DHT22;62797;49.740;10.154;2023-04-09T00:01:56;7.40;51.60
74364;DHT22;62797;49.740;10.154;2023-04-09T00:04:22;7.40;51.60
74364;DHT22;62797;49.740;10.154;2023-04-09T00:06:48;7.40;51.90
74364;DHT22;62797;49.740;10.154;2023-04-09T00:09:14;7.40;52.80
74364;DHT22;62797;49.740;10.154;2023-04-09T00:11:39;7.30;53.70
74364;DHT22;62797;49.740;10.154;2023-04-09T00:14:05;7.30;54.00
74364;DHT22;62797;49.740;10.154;2023-04-09T00:16:31;7.40;52.70
74364;DHT22;62797;49.740;10.154;2023-04-09T00:18:56;7.30;53.30
74364;DHT22;62797;49.740;10.154;2023-04-09T00:21:22;7.30;53.50
74364;DHT22;62797;49.740;10.154;2023-04-09T00:23:48;7.30;53.90
74364;DHT22;62797;49.740;10.154;2023-04-09T00:26:13;7.20;54.00
74364;DHT22;62797;49.740;10.154;2023-04-09T00:28:39;7.20;54.10
74364;DHT22;62797;49.740;10.154;2023-04-09T00:31:05;7.20;54.20
74364;DHT22;62797;49.740;10.154;2023-04-09T00:33:31;7.20;53.90
74364;DHT22;62797;49.740;10.154;2023-04-09T00:35:57;7.20;53.90
74364;DHT22;62797;49.740;10.154;2023-04-09T00:38:22;7.20;54.60
74364;DHT22;62797;49.740;10.154;2023-04-09T00:40:49;7.20;54.90
74364;DHT22;62797;49.740;10.154;2023-04-09T00:43:18;7.10;55.50
74364;DHT22;62797;49.740;10.154;2023-04-09T00:45:44;7.10;54.90
74364;DHT22;62797;49.740;10.154;2023-04-09T00:48:11;7.20;53.80
74364;DHT22;62797;49.740;10.154;2023-04-09T00:50:37;7.10;55.00
74364;DHT22;62797;49.740;10.154;2023-04-09T00:53:06;7.10;56.60
74364;DHT22;62797;49.740;10.154;2023-04-09T00:55:32;7.00;57.20
74364;DHT22;62797;49.740;10.154;2023-04-09T00:57:58;6.90;58.00
74364;DHT22;62797;49.740;10.154;2023-04-09T01:00:24;7.00;57.20
74364;DHT22;62797;49.740;10.154;2023-04-09T01:02:54;7.10;57.30
74364;DHT22;62797;49.740;10.154;2023-04-09T01:05:21;7.00;57.40
74364;DHT22;62797;49.740;10.154;2023-04-09T01:08:07;6.90;57.80
74364;DHT22;62797;49.740;10.154;2023-04-09T01:10:53;6.90;57.20
74364;DHT22;62797;49.740;10.154;2023-04-09T01:13:37;7.00;55.90
74364;DHT22;62797;49.740;10.154;2023-04-09T01:16:04;7.00;55.30
74364;DHT22;62797;49.740;10.154;2023-04-09T01:21:16;7.00;55.60
74364;DHT22;62797;49.740;10.154;2023-04-09T01:24:08;7.00;56.90
74364;DHT22;62797;49.740;10.154;2023-04-09T01:26:51;7.00;56.60
74364;DHT22;62797;49.740;10.154;2023-04-09T01:29:24;7.00;57.30
74364;DHT22;62797;49.740;10.154;2023-04-09T01:31:51;6.90;57.60
74364;DHT22;62797;49.740;10.154;2023-04-09T01:34:18;6.90;58.20
74364;DHT22;62797;49.740;10.154;2023-04-09T01:36:49;6.90;58.20
74364;DHT22;62797;49.740;10.154;2023-04-09T01:39:16;6.90;57.30
74364;DHT22;62797;49.740;10.154;2023-04-09T01:41:42;7.00;56.30
74364;DHT22;62797;49.740;10.154;2023-04-09T01:44:08;7.00;56.30
74364;DHT22;62797;49.740;10.154;2023-04-09T01:46:35;6.90;57.40
74364;DHT22;62797;49.740;10.154;2023-04-09T01:49:02;6.90;57.60
74364;DHT22;62797;49.740;10.154;2023-04-09T01:51:29;6.90;57.50
74364;DHT22;62797;49.740;10.154;2023-04-09T01:53:56;6.90;58.50
74364;DHT22;62797;49.740;10.154;2023-04-09T01:56:22;6.80;58.90
74364;DHT22;62797;49.740;10.154;2023-04-09T01:58:48;6.80;58.80
74364;DHT22;62797;49.740;10.154;2023-04-09T02:01:32;6.70;59.00
74364;DHT22;62797;49.740;10.154;2023-04-09T02:04:02;6.70;58.90
74364;DHT22;62797;49.740;10.154;2023-04-09T02:06:52;6.70;59.00
74364;DHT22;62797;49.740;10.154;2023-04-09T02:09:19;6.80;58.20
74364;DHT22;62797;49.740;10.154;2023-04-09T02:11:46;6.80;58.10
74364;DHT22;62797;49.740;10.154;2023-04-09T02:14:14;6.70;59.00
74364;DHT22;62797;49.740;10.154;2023-04-09T02:16:41;6.80;58.90
74364;DHT22;62797;49.740;10.154;2023-04-09T02:19:07;6.80;58.80
74364;DHT22;62797;49.740;10.154;2023-04-09T02:21:35;6.70;59.20
74364;DHT22;62797;49.740;10.154;2023-04-09T02:24:00;6.80;59.60
74364;DHT22;62797;49.740;10.154;2023-04-09T02:26:26;6.70;59.50
74364;DHT22;62797;49.740;10.154;2023-04-09T02:28:51;6.70;59.70
74364;DHT22;62797;49.740;10.154;2023-04-09T02:31:17;6.70;59.50
74364;DHT22;62797;49.740;10.154;2023-04-09T02:33:43;6.70;58.80
74364;DHT22;62797;49.740;10.154;2023-04-09T02:36:12;6.80;58.60
74364;DHT22;62797;49.740;10.154;2023-04-09T02:38:41;6.80;58.10
74364;DHT22;62797;49.740;10.154;2023-04-09T02:41:07;6.80;58.50
74364;DHT22;62797;49.740;10.154;2023-04-09T02:43:32;6.80;58.80
74364;DHT22;62797;49.740;10.154;2023-04-09T02:45:58;6.80;58.90
74364;DHT22;62797;49.740;10.154;2023-04-09T02:48:24;6.70;59.50
74364;DHT22;62797;49.740;10.154;2023-04-09T02:50:50;6.70;59.40
74364;DHT22;62797;49.740;10.154;2023-04-09T02:53:15;6.60;59.50
74364;DHT22;62797;49.740;10.154;2023-04-09T02:55:41;6.70;59.00
74364;DHT22;62797;49.740;10.154;2023-04-09T02:58:06;6.70;59.30
74364;DHT22;62797;49.740;10.154;2023-04-09T03:00:32;6.70;60.40
74364;DHT22;62797;49.740;10.154;2023-04-09T03:02:58;6.80;60.50
74364;DHT22;62797;49.740;10.154;2023-04-09T03:05:24;6.70;60.50
74364;DHT22;62797;49.740;10.154;2023-04-09T03:07:50;6.70;59.50
74364;DHT22;62797;49.740;10.154;2023-04-09T03:10:18;6.70;59.30
74364;DHT22;62797;49.740;10.154;2023-04-09T03:12:44;6.70;60.00
74364;DHT22;62797;49.740;10.154;2023-04-09T03:15:10;6.70;59.20
74364;DHT22;62797;49.740;10.154;2023-04-09T03:17:36;6.70;60.10
74364;DHT22;62797;49.740;10.154;2023-04-09T03:20:01;6.70;59.70
74364;DHT22;62797;49.740;10.154;2023-04-09T03:22:37;6.70;59.10
74364;DHT22;62797;49.740;10.154;2023-04-09T03:25:10;6.80;58.80
74364;DHT22;62797;49.740;10.154;2023-04-09T03:27:35;6.80;59.50
74364;DHT22;62797;49.740;10.154;2023-04-09T03:30:02;6.70;59.50
74364;DHT22;62797;49.740;10.154;2023-04-09T03:32:36;6.70;59.10
74364;DHT22;62797;49.740;10.154;2023-04-09T03:35:03;6.70;60.30
74364;DHT22;62797;49.740;10.154;2023-04-09T03:37:29;6.70;59.80
74364;DHT22;62797;49.740;10.154;2023-04-09T03:39:55;6.70;59.80
74364;DHT22;62797;49.740;10.154;2023-04-09T03:42:25;6.70;59.80
74364;DHT22;62797;49.740;10.154;2023-04-09T03:44:52;6.60;60.70
74364;DHT22;62797;49.740;10.154;2023-04-09T03:47:26;6.60;60.80
74364;DHT22;62797;49.740;10.154;2023-04-09T03:49:53;6.60;61.40
74364;DHT22;62797;49.740;10.154;2023-04-09T03:52:25;6.50;61.40
74364;DHT22;62797;49.740;10.154;2023-04-09T03:54:58;6.60;61.50
74364;DHT22;62797;49.740;10.154;2023-04-09T03:57:25;6.60;59.90
74364;DHT22;62797;49.740;10.154;2023-04-09T03:59:53;6.60;60.10
74364;DHT22;62797;49.740;10.154;2023-04-09T04:02:20;6.60;60.10
74364;DHT22;62797;49.740;10.154;2023-04-09T04:04:58;6.50;61.60
74364;DHT22;62797;49.740;10.154;2023-04-09T04:07:28;6.50;60.80
74364;DHT22;62797;49.740;10.154;2023-04-09T04:09:59;6.50;61.10
74364;DHT22;62797;49.740;10.154;2023-04-09T04:12:24;6.60;60.60
74364;DHT22;62797;49.740;10.154;2023-04-09T04:15:01;6.50;61.90
74364;DHT22;62797;49.740;10.154;2023-04-09T04:17:41;6.50;61.80
74364;DHT22;62797;49.740;10.154;2023-04-09T04:20:16;6.50;61.70
74364;DHT22;62797;49.740;10.154;2023-04-09T04:22:55;6.50;60.50
74364;DHT22;62797;49.740;10.154;2023-04-09T04:25:22;6.60;60.10
74364;DHT22;62797;49.740;10.154;2023-04-09T04:27:49;6.50;61.70
74364;DHT22;62797;49.740;10.154;2023-04-09T04:30:18;6.40;62.70
74364;DHT22;62797;49.740;10.154;2023-04-09T04:32:54;6.40;63.00
74364;DHT22;62797;49.740;10.154;2023-04-09T04:35:21;6.30;63.90
74364;DHT22;62797;49.740;10.154;2023-04-09T04:37:49;6.30;64.20
74364;DHT22;62797;49.740;10.154;2023-04-09T04:40:16;6.30;63.50
74364;DHT22;62797;49.740;10.154;2023-04-09T04:42:42;6.40;62.70
74364;DHT22;62797;49.740;10.154;2023-04-09T04:45:12;6.40;62.80
74364;DHT22;62797;49.740;10.154;2023-04-09T04:47:43;6.50;62.80
74364;DHT22;62797;49.740;10.154;2023-04-09T04:50:09;6.40;62.60
74364;DHT22;62797;49.740;10.154;2023-04-09T04:52:49;6.40;63.40
74364;DHT22;62797;49.740;10.154;2023-04-09T04:55:14;6.40;62.40
74364;DHT22;62797;49.740;10.154;2023-04-09T04:57:41;6.30;63.10
74364;DHT22;62797;49.740;10.154;2023-04-09T05:00:07;6.40;61.90
74364;DHT22;62797;49.740;10.154;2023-04-09T05:02:34;6.30;61.00
74364;DHT22;62797;49.740;10.154;2023-04-09T05:05:15;6.30;61.40
74364;DHT22;62797;49.740;10.154;2023-04-09T05:07:47;6.10;63.30
74364;DHT22;62797;49.740;10.154;2023-04-09T05:10:13;5.90;64.60
74364;DHT22;62797;49.740;10.154;2023-04-09T05:12:41;5.80;64.60
74364;DHT22;62797;49.740;10.154;2023-04-09T05:15:08;5.80;63.20
74364;DHT22;62797;49.740;10.154;2023-04-09T05:17:36;5.80;63.30
74364;DHT22;62797;49.740;10.154;2023-04-09T05:20:01;5.70;63.20
74364;DHT22;62797;49.740;10.154;2023-04-09T05:22:35;5.60;64.70
74364;DHT22;62797;49.740;10.154;2023-04-09T05:25:02;5.50;65.30
74364;DHT22;62797;49.740;10.154;2023-04-09T05:27:29;5.50;65.30
74364;DHT22;62797;49.740;10.154;2023-04-09T05:29:59;5.40;66.20
74364;DHT22;62797;49.740;10.154;2023-04-09T05:32:26;5.40;66.30
74364;DHT22;62797;49.740;10.154;2023-04-09T05:34:51;5.40;66.70
74364;DHT22;62797;49.740;10.154;2023-04-09T05:37:17;5.40;66.90
74364;DHT22;62797;49.740;10.154;2023-04-09T05:39:48;5.40;67.00
74364;DHT22;62797;49.740;10.154;2023-04-09T05:42:13;5.50;67.20
74364;DHT22;62797;49.740;10.154;2023-04-09T05:44:59;5.50;66.90
74364;DHT22;62797;49.740;10.154;2023-04-09T05:47:25;5.60;67.10
74364;DHT22;62797;49.740;10.154;2023-04-09T05:50:11;5.60;67.20
74364;DHT22;62797;49.740;10.154;2023-04-09T05:52:37;5.60;67.10
74364;DHT22;62797;49.740;10.154;2023-04-09T05:55:04;5.70;66.80
74364;DHT22;62797;49.740;10.154;2023-04-09T05:57:51;5.70;66.60
74364;DHT22;62797;49.740;10.154;2023-04-09T06:00:17;5.70;67.50
74364;DHT22;62797;49.740;10.154;2023-04-09T06:02:45;5.70;66.40
74364;DHT22;62797;49.740;10.154;2023-04-09T06:05:11;5.80;66.20
74364;DHT22;62797;49.740;10.154;2023-04-09T06:07:37;5.80;65.90
74364;DHT22;62797;49.740;10.154;2023-04-09T06:10:02;5.80;65.40
74364;DHT22;62797;49.740;10.154;2023-04-09T06:12:28;5.80;65.70
74364;DHT22;62797;49.740;10.154;2023-04-09T06:14:54;5.80;65.90
74364;DHT22;62797;49.740;10.154;2023-04-09T06:17:19;5.80;66.40
74364;DHT22;62797;49.740;10.154;2023-04-09T06:19:45;5.90;66.30
74364;DHT22;62797;49.740;10.154;2023-04-09T06:22:11;6.00;65.80
74364;DHT22;62797;49.740;10.154;2023-04-09T06:24:36;6.10;65.10
74364;DHT22;62797;49.740;10.154;2023-04-09T06:27:02;6.10;65.50
74364;DHT22;62797;49.740;10.154;2023-04-09T06:29:27;6.30;64.90
74364;DHT22;62797;49.740;10.154;2023-04-09T06:31:54;6.40;63.90
74364;DHT22;62797;49.740;10.154;2023-04-09T06:34:19;6.50;63.30
74364;DHT22;62797;49.740;10.154;2023-04-09T06:36:45;6.70;62.60
74364;DHT22;62797;49.740;10.154;2023-04-09T06:39:11;6.80;61.70
74364;DHT22;62797;49.740;10.154;2023-04-09T06:41:37;6.90;60.80
74364;DHT22;62797;49.740;10.154;2023-04-09T06:44:11;7.00;60.10
74364;DHT22;62797;49.740;10.154;2023-04-09T06:46:36;7.20;59.60
74364;DHT22;62797;49.740;10.154;2023-04-09T06:49:02;7.40;59.10
74364;DHT22;62797;49.740;10.154;2023-04-09T06:51:27;7.50;57.60
74364;DHT22;62797;49.740;10.154;2023-04-09T06:53:53;7.60;56.70
74364;DHT22;62797;49.740;10.154;2023-04-09T06:56:19;7.80;56.80
74364;DHT22;62797;49.740;10.154;2023-04-09T06:58:44;7.90;56.40
74364;DHT22;62797;49.740;10.154;2023-04-09T07:01:11;8.10;55.20
74364;DHT22;62797;49.740;10.154;2023-04-09T07:03:39;8.20;54.80
74364;DHT22;62797;49.740;10.154;2023-04-09T07:06:05;8.30;52.70
74364;DHT22;62797;49.740;10.154;2023-04-09T07:08:30;8.40;52.10
74364;DHT22;62797;49.740;10.154;2023-04-09T07:10:56;8.40;51.90
74364;DHT22;62797;49.740;10.154;2023-04-09T07:13:22;8.60;52.30
74364;DHT22;62797;49.740;10.154;2023-04-09T07:15:48;8.60;52.10
74364;DHT22;62797;49.740;10.154;2023-04-09T07:18:13;8.80;51.30
74364;DHT22;62797;49.740;10.154;2023-04-09T07:20:39;8.80;49.40
74364;DHT22;62797;49.740;10.154;2023-04-09T07:23:07;8.70;49.60
74364;DHT22;62797;49.740;10.154;2023-04-09T07:25:32;8.70;49.80
74364;DHT22;62797;49.740;10.154;2023-04-09T07:27:58;8.70;49.10
74364;DHT22;62797;49.740;10.154;2023-04-09T07:30:24;8.60;47.80
74364;DHT22;62797;49.740;10.154;2023-04-09T07:32:50;8.50;48.30
74364;DHT22;62797;49.740;10.154;2023-04-09T07:35:16;8.50;47.80
74364;DHT22;62797;49.740;10.154;2023-04-09T07:37:43;8.50;47.50
74364;DHT22;62797;49.740;10.154;2023-04-09T07:40:08;8.50;48.40
74364;DHT22;62797;49.740;10.154;2023-04-09T07:42:36;8.60;48.00
74364;DHT22;62797;49.740;10.154;2023-04-09T07:45:03;8.70;44.20
74364;DHT22;62797;49.740;10.154;2023-04-09T07:47:29;8.70;44.20
74364;DHT22;62797;49.740;10.154;2023-04-09T07:49:54;8.70;43.50
74364;DHT22;62797;49.740;10.154;2023-04-09T07:52:20;8.80;42.60
74364;DHT22;62797;49.740;10.154;2023-04-09T07:54:46;8.80;42.70
74364;DHT22;62797;49.740;10.154;2023-04-09T07:57:11;8.90;42.80
74364;DHT22;62797;49.740;10.154;2023-04-09T07:59:37;9.00;42.60
74364;DHT22;62797;49.740;10.154;2023-04-09T08:02:02;9.00;41.90
74364;DHT22;62797;49.740;10.154;2023-04-09T08:04:28;9.10;41.10
74364;DHT22;62797;49.740;10.154;2023-04-09T08:06:54;9.20;40.30
74364;DHT22;62797;49.740;10.154;2023-04-09T08:09:20;9.20;39.30
74364;DHT22;62797;49.740;10.154;2023-04-09T08:11:46;9.30;38.50
74364;DHT22;62797;49.740;10.154;2023-04-09T08:14:12;9.40;36.90
74364;DHT22;62797;49.740;10.154;2023-04-09T08:16:43;9.40;37.10
74364;DHT22;62797;49.740;10.154;2023-04-09T08:19:09;9.50;36.80
74364;DHT22;62797;49.740;10.154;2023-04-09T08:21:41;9.50;37.00
74364;DHT22;62797;49.740;10.154;2023-04-09T08:24:08;9.50;37.50
74364;DHT22;62797;49.740;10.154;2023-04-09T08:26:36;9.60;37.40
74364;DHT22;62797;49.740;10.154;2023-04-09T08:29:02;9.60;37.30
74364;DHT22;62797;49.740;10.154;2023-04-09T08:31:28;9.70;36.50
74364;DHT22;62797;49.740;10.154;2023-04-09T08:33:54;9.70;36.40
74364;DHT22;62797;49.740;10.154;2023-04-09T08:36:20;9.80;36.20
74364;DHT22;62797;49.740;10.154;2023-04-09T08:38:46;9.80;36.40
74364;DHT22;62797;49.740;10.154;2023-04-09T08:41:17;9.90;34.60
74364;DHT22;62797;49.740;10.154;2023-04-09T08:43:45;10.00;35.30
74364;DHT22;62797;49.740;10.154;2023-04-09T08:46:11;10.10;34.40
74364;DHT22;62797;49.740;10.154;2023-04-09T08:48:38;10.20;34.60
74364;DHT22;62797;49.740;10.154;2023-04-09T08:51:06;10.20;34.50
74364;DHT22;62797;49.740;10.154;2023-04-09T08:53:33;10.20;32.10
74364;DHT22;62797;49.740;10.154;2023-04-09T08:55:59;10.20;33.80
74364;DHT22;62797;49.740;10.154;2023-04-09T08:58:25;10.20;33.80
74364;DHT22;62797;49.740;10.154;2023-04-09T09:00:51;10.30;33.20
74364;DHT22;62797;49.740;10.154;2023-04-09T09:03:16;10.50;32.90
74364;DHT22;62797;49.740;10.154;2023-04-09T09:05:44;10.50;32.80
74364;DHT22;62797;49.740;10.154;2023-04-09T09:08:12;10.70;32.20
74364;DHT22;62797;49.740;10.154;2023-04-09T09:10:43;10.80;31.70
74364;DHT22;62797;49.740;10.154;2023-04-09T09:15:45;10.90;32.00
74364;DHT22;62797;49.740;10.154;2023-04-09T09:18:12;10.90;30.80
74364;DHT22;62797;49.740;10.154;2023-04-09T09:20:37;10.90;30.70
74364;DHT22;62797;49.740;10.154;2023-04-09T09:23:03;10.80;30.30
74364;DHT22;62797;49.740;10.154;2023-04-09T09:25:31;10.80;30.10
74364;DHT22;62797;49.740;10.154;2023-04-09T09:28:06;10.80;30.60
74364;DHT22;62797;49.740;10.154;2023-04-09T09:30:32;10.90;30.70
74364;DHT22;62797;49.740;10.154;2023-04-09T09:33:06;11.00;29.10
74364;DHT22;62797;49.740;10.154;2023-04-09T09:35:49;11.00;28.90
74364;DHT22;62797;49.740;10.154;2023-04-09T09:38:15;11.10;28.20
74364;DHT22;62797;49.740;10.154;2023-04-09T09:40:41;11.20;28.20
74364;DHT22;62797;49.740;10.154;2023-04-09T09:43:07;11.20;28.30
74364;DHT22;62797;49.740;10.154;2023-04-09T09:45:33;11.30;27.80
74364;DHT22;62797;49.740;10.154;2023-04-09T09:47:59;11.40;28.40
74364;DHT22;62797;49.740;10.154;2023-04-09T09:50:25;11.50;29.80
74364;DHT22;62797;49.740;10.154;2023-04-09T09:52:59;11.70;28.70
74364;DHT22;62797;49.740;10.154;2023-04-09T09:55:26;12.00;26.10
74364;DHT22;62797;49.740;10.154;2023-04-09T09:57:55;12.00;26.10
74364;DHT22;62797;49.740;10.154;2023-04-09T10:00:21;12.20;26.20
74364;DHT22;62797;49.740;10.154;2023-04-09T10:02:57;12.30;24.60
74364;DHT22;62797;49.740;10.154;2023-04-09T10:05:23;12.30;25.90
74364;DHT22;62797;49.740;10.154;2023-04-09T10:07:59;12.40;26.20
74364;DHT22;62797;49.740;10.154;2023-04-09T10:10:26;12.60;24.20
74364;DHT22;62797;49.740;10.154;2023-04-09T10:12:52;12.80;23.70
74364;DHT22;62797;49.740;10.154;2023-04-09T10:15:18;13.00;23.10
74364;DHT22;62797;49.740;10.154;2023-04-09T10:17:44;13.30;21.80
74364;DHT22;62797;49.740;10.154;2023-04-09T10:20:36;13.30;21.20
74364;DHT22;62797;49.740;10.154;2023-04-09T10:23:04;13.30;20.80
74364;DHT22;62797;49.740;10.154;2023-04-09T10:25:31;13.20;19.90
74364;DHT22;62797;49.740;10.154;2023-04-09T10:28:01;13.10;19.30
74364;DHT22;62797;49.740;10.154;2023-04-09T10:30:44;13.20;20.20
74364;DHT22;62797;49.740;10.154;2023-04-09T10:33:13;13.40;19.30
74364;DHT22;62797;49.740;10.154;2023-04-09T10:35:38;13.80;19.90
74364;DHT22;62797;49.740;10.154;2023-04-09T10:38:08;14.30;17.80
74364;DHT22;62797;49.740;10.154;2023-04-09T10:40:40;14.60;17.00
74364;DHT22;62797;49.740;10.154;2023-04-09T10:43:07;15.10;18.70
74364;DHT22;62797;49.740;10.154;2023-04-09T10:45:41;15.40;13.80
74364;DHT22;62797;49.740;10.154;2023-04-09T10:48:11;15.60;13.90
74364;DHT22;62797;49.740;10.154;2023-04-09T10:50:38;15.80;14.80
74364;DHT22;62797;49.740;10.154;2023-04-09T10:53:04;16.10;13.50
74364;DHT22;62797;49.740;10.154;2023-04-09T10:55:36;16.20;13.20
74364;DHT22;62797;49.740;10.154;2023-04-09T10:58:05;16.30;11.80
74364;DHT22;62797;49.740;10.154;2023-04-09T11:00:37;16.20;11.90
74364;DHT22;62797;49.740;10.154;2023-04-09T11:03:36;16.10;13.70
74364;DHT22;62797;49.740;10.154;2023-04-09T11:06:08;16.60;13.00
74364;DHT22;62797;49.740;10.154;2023-04-09T11:08:35;16.60;11.70
74364;DHT22;62797;49.740;10.154;2023-04-09T11:11:02;16.50;12.70
74364;DHT22;62797;49.740;10.154;2023-04-09T11:13:29;16.30;13.90
74364;DHT22;62797;49.740;10.154;2023-04-09T11:15:56;16.40;12.50
74364;DHT22;62797;49.740;10.154;2023-04-09T11:18:27;16.40;13.20
74364;DHT22;62797;49.740;10.154;2023-04-09T11:21:00;17.00;12.80
74364;DHT22;62797;49.740;10.154;2023-04-09T11:23:27;17.60;10.20
74364;DHT22;62797;49.740;10.154;2023-04-09T11:25:54;17.50;9.90
74364;DHT22;62797;49.740;10.154;2023-04-09T11:28:21;17.40;10.00
74364;DHT22;62797;49.740;10.154;2023-04-09T11:30:49;17.80;9.50
74364;DHT22;62797;49.740;10.154;2023-04-09T11:33:15;18.00;9.70
74364;DHT22;62797;49.740;10.154;2023-04-09T11:35:41;17.90;8.60
74364;DHT22;62797;49.740;10.154;2023-04-09T11:38:08;17.80;8.90
74364;DHT22;62797;49.740;10.154;2023-04-09T11:40:34;18.10;11.20
74364;DHT22;62797;49.740;10.154;2023-04-09T11:43:00;18.50;10.70
74364;DHT22;62797;49.740;10.154;2023-04-09T11:45:29;18.60;8.70
74364;DHT22;62797;49.740;10.154;2023-04-09T11:47:56;18.20;8.30
74364;DHT22;62797;49.740;10.154;2023-04-09T11:50:22;17.80;8.40
74364;DHT22;62797;49.740;10.154;2023-04-09T11:52:48;17.50;9.50
74364;DHT22;62797;49.740;10.154;2023-04-09T11:55:28;17.80;9.10
74364;DHT22;62797;49.740;10.154;2023-04-09T11:57:58;17.70;8.50
74364;DHT22;62797;49.740;10.154;2023-04-09T12:00:27;17.40;11.00
74364;DHT22;62797;49.740;10.154;2023-04-09T12:03:03;17.70;11.10
74364;DHT22;62797;49.740;10.154;2023-04-09T12:05:33;18.00;10.20
74364;DHT22;62797;49.740;10.154;2023-04-09T12:08:06;18.10;10.00
74364;DHT22;62797;49.740;10.154;2023-04-09T12:10:35;18.10;10.20
74364;DHT22;62797;49.740;10.154;2023-04-09T12:13:10;18.00;10.00
74364;DHT22;62797;49.740;10.154;2023-04-09T12:15:37;17.90;9.50
74364;DHT22;62797;49.740;10.154;2023-04-09T12:18:07;17.90;10.80
74364;DHT22;62797;49.740;10.154;2023-04-09T12:20:41;17.80;10.70
74364;DHT22;62797;49.740;10.154;2023-04-09T12:23:09;18.20;9.60
74364;DHT22;62797;49.740;10.154;2023-04-09T12:25:37;18.70;8.10
74364;DHT22;62797;49.740;10.154;2023-04-09T12:28:04;18.50;8.40
74364;DHT22;62797;49.740;10.154;2023-04-09T12:30:31;18.40;9.40
74364;DHT22;62797;49.740;10.154;2023-04-09T12:32:57;18.30;9.40
74364;DHT22;62797;49.740;10.154;2023-04-09T12:35:23;18.00;10.50
74364;DHT22;62797;49.740;10.154;2023-04-09T12:37:49;18.00;10.00
74364;DHT22;62797;49.740;10.154;2023-04-09T12:40:15;18.00;10.10
74364;DHT22;62797;49.740;10.154;2023-04-09T12:42:42;18.20;10.20
74364;DHT22;62797;49.740;10.154;2023-04-09T12:45:15;18.90;11.10
74364;DHT22;62797;49.740;10.154;2023-04-09T12:47:44;19.30;7.60
74364;DHT22;62797;49.740;10.154;2023-04-09T12:50:11;18.70;6.70
74364;DHT22;62797;49.740;10.154;2023-04-09T12:52:38;17.90;9.30
74364;DHT22;62797;49.740;10.154;2023-04-09T12:55:05;17.70;9.70
74364;DHT22;62797;49.740;10.154;2023-04-09T12:57:31;17.60;9.70
74364;DHT22;62797;49.740;10.154;2023-04-09T12:59:56;18.00;9.50
74364;DHT22;62797;49.740;10.154;2023-04-09T13:02:22;18.80;9.50
74364;DHT22;62797;49.740;10.154;2023-04-09T13:04:48;19.00;8.30
74364;DHT22;62797;49.740;10.154;2023-04-09T13:07:15;19.00;8.90
74364;DHT22;62797;49.740;10.154;2023-04-09T13:09:47;18.90;8.60
74364;DHT22;62797;49.740;10.154;2023-04-09T13:12:15;18.70;6.80
74364;DHT22;62797;49.740;10.154;2023-04-09T13:14:42;18.10;8.70
74364;DHT22;62797;49.740;10.154;2023-04-09T13:17:08;17.70;9.70
74364;DHT22;62797;49.740;10.154;2023-04-09T13:19:34;17.70;8.80
74364;DHT22;62797;49.740;10.154;2023-04-09T13:21:59;17.70;9.50
74364;DHT22;62797;49.740;10.154;2023-04-09T13:24:25;17.90;9.60
74364;DHT22;62797;49.740;10.154;2023-04-09T13:26:51;18.10;9.70
74364;DHT22;62797;49.740;10.154;2023-04-09T13:29:17;18.30;8.40
74364;DHT22;62797;49.740;10.154;2023-04-09T13:31:42;18.20;8.90
74364;DHT22;62797;49.740;10.154;2023-04-09T13:34:08;17.80;9.30
74364;DHT22;62797;49.740;10.154;2023-04-09T13:36:34;17.60;9.60
74364;DHT22;62797;49.740;10.154;2023-04-09T13:39:00;17.20;10.10
74364;DHT22;62797;49.740;10.154;2023-04-09T13:41:32;17.20;10.50
74364;DHT22;62797;49.740;10.154;2023-04-09T13:43:59;17.10;11.50
74364;DHT22;62797;49.740;10.154;2023-04-09T13:46:25;17.20;9.80
74364;DHT22;62797;49.740;10.154;2023-04-09T13:48:52;17.30;11.60
74364;DHT22;62797;49.740;10.154;2023-04-09T13:51:22;17.90;10.90
74364;DHT22;62797;49.740;10.154;2023-04-09T13:53:48;18.30;11.90
74364;DHT22;62797;49.740;10.154;2023-04-09T13:56:15;19.40;9.60
74364;DHT22;62797;49.740;10.154;2023-04-09T13:58:40;20.30;10.80
74364;DHT22;62797;49.740;10.154;2023-04-09T14:01:08;21.40;7.10
74364;DHT22;62797;49.740;10.154;2023-04-09T14:03:33;21.90;6.70
74364;DHT22;62797;49.740;10.154;2023-04-09T14:05:59;22.10;4.30
74364;DHT22;62797;49.740;10.154;2023-04-09T14:08:26;21.70;4.90
74364;DHT22;62797;49.740;10.154;2023-04-09T14:10:51;21.70;4.80
74364;DHT22;62797;49.740;10.154;2023-04-09T14:13:17;22.30;5.90
74364;DHT22;62797;49.740;10.154;2023-04-09T14:15:42;22.70;4.20
74364;DHT22;62797;49.740;10.154;2023-04-09T14:18:10;22.50;4.10
74364;DHT22;62797;49.740;10.154;2023-04-09T14:20:36;22.50;5.00
74364;DHT22;62797;49.740;10.154;2023-04-09T14:23:02;22.40;3.40
74364;DHT22;62797;49.740;10.154;2023-04-09T14:25:28;22.00;5.50
74364;DHT22;62797;49.740;10.154;2023-04-09T14:27:54;21.80;4.70
74364;DHT22;62797;49.740;10.154;2023-04-09T14:30:21;21.70;6.20
74364;DHT22;62797;49.740;10.154;2023-04-09T14:32:47;22.10;4.60
74364;DHT22;62797;49.740;10.154;2023-04-09T14:35:12;22.20;4.00
74364;DHT22;62797;49.740;10.154;2023-04-09T14:37:38;21.90;4.20
74364;DHT22;62797;49.740;10.154;2023-04-09T14:40:09;21.70;4.00
74364;DHT22;62797;49.740;10.154;2023-04-09T14:42:34;21.70;5.00
74364;DHT22;62797;49.740;10.154;2023-04-09T14:45:00;21.30;3.50
74364;DHT22;62797;49.740;10.154;2023-04-09T14:47:26;20.70;4.70
74364;DHT22;62797;49.740;10.154;2023-04-09T14:49:52;20.40;4.90
74364;DHT22;62797;49.740;10.154;2023-04-09T14:52:17;20.00;6.20
74364;DHT22;62797;49.740;10.154;2023-04-09T14:54:43;19.60;6.60
74364;DHT22;62797;49.740;10.154;2023-04-09T14:57:08;19.10;7.70
74364;DHT22;62797;49.740;10.154;2023-04-09T14:59:35;18.60;7.70
74364;DHT22;62797;49.740;10.154;2023-04-09T15:02:00;18.30;8.30
74364;DHT22;62797;49.740;10.154;2023-04-09T15:04:26;18.00;8.30
74364;DHT22;62797;49.740;10.154;2023-04-09T15:06:51;17.80;8.90
74364;DHT22;62797;49.740;10.154;2023-04-09T15:09:17;17.60;9.20
74364;DHT22;62797;49.740;10.154;2023-04-09T15:11:43;17.50;8.80
74364;DHT22;62797;49.740;10.154;2023-04-09T15:14:09;17.60;9.40
74364;DHT22;62797;49.740;10.154;2023-04-09T15:16:34;17.90;9.40
74364;DHT22;62797;49.740;10.154;2023-04-09T15:19:02;18.50;9.50
74364;DHT22;62797;49.740;10.154;2023-04-09T15:21:28;19.30;7.90
74364;DHT22;62797;49.740;10.154;2023-04-09T15:23:54;19.30;6.80
74364;DHT22;62797;49.740;10.154;2023-04-09T15:26:20;18.80;6.80
74364;DHT22;62797;49.740;10.154;2023-04-09T15:28:46;18.10;8.00
74364;DHT22;62797;49.740;10.154;2023-04-09T15:31:12;17.70;8.60
74364;DHT22;62797;49.740;10.154;2023-04-09T15:33:37;17.80;8.70
74364;DHT22;62797;49.740;10.154;2023-04-09T15:36:06;18.20;8.90
74364;DHT22;62797;49.740;10.154;2023-04-09T15:38:32;18.80;8.30